sensor_id;sensor_type;location;lat;lon;timestamp;P1;durP1;ratioP1;P2;durP2;ratioP2
49722;SDS011;43484;43.608;1.458;2022-07-23T00:00:19;7.60;;;1.63;;
49722;SDS011;43484;43.608;1.458;2022-07-23T00:02:46;7.15;;;1.50;;
49722;SDS011;43484;43.608;1.458;2022-07-23T00:05:13;7.65;;;1.40;;
49722;SDS011;43484;43.608;1.458;2022-07-23T00:07:40;5.88;;;1.42;;
49722;SDS011;43484;43.608;1.458;2022-07-23T00:10:07;5.35;;;1.50;;
49722;SDS011;43484;43.608;1.458;2022-07-23T00:12:34;7.05;;;1.85;;
49722;SDS011;43484;43.608;1.458;2022-07-23T00:15:01;5.35;;;1.48;;
49722;SDS011;43484;43.608;1.458;2022-07-23T00:17:30;7.80;;;1.80;;
49722;SDS011;43484;43.608;1.458;2022-07-23T00:19:57;8.75;;;2.30;;
49722;SDS011;43484;43.608;1.458;2022-07-23T00:22:24;8.07;;;1.40;;
49722;SDS011;43484;43.608;1.458;2022-07-23T00:24:50;6.43;;;2.08;;
49722;SDS011;43484;43.608;1.458;2022-07-23T00:27:38;6.78;;;1.63;;
49722;SDS011;43484;43.608;1.458;2022-07-23T00:30:04;8.27;;;2.28;;
49722;SDS011;43484;43.608;1.458;2022-07-23T00:32:31;6.63;;;1.75;;
49722;SDS011;43484;43.608;1.458;2022-07-23T00:35:21;7.18;;;2.05;;
49722;SDS011;43484;43.608;1.458;2022-07-23T00:37:49;6.70;;;1.55;;
49722;SDS011;43484;43.608;1.458;2022-07-23T00:40:16;27.25;;;3.70;;
49722;SDS011;43484;43.608;1.458;2022-07-23T00:42:43;23.60;;;3.58;;
49722;SDS011;43484;43.608;1.458;2022-07-23T00:45:09;11.93;;;2.25;;
49722;SDS011;43484;43.608;1.458;2022-07-23T00:47:36;11.05;;;2.35;;
49722;SDS011;43484;43.608;1.458;2022-07-23T00:50:04;11.60;;;3.20;;
49722;SDS011;43484;43.608;1.458;2022-07-23T00:52:32;13.60;;;3.30;;
49722;SDS011;43484;43.608;1.458;2022-07-23T00:55:00;10.93;;;2.75;;
49722;SDS011;43484;43.608;1.458;2022-07-23T00:57:27;8.30;;;3.00;;
49722;SDS011;43484;43.608;1.458;2022-07-23T00:59:54;12.13;;;2.53;;
49722;SDS011;43484;43.608;1.458;2022-07-23T01:02:24;5.75;;;2.47;;
49722;SDS011;43484;43.608;1.458;2022-07-23T01:04:52;5.82;;;2.72;;
49722;SDS011;43484;43.608;1.458;2022-07-23T01:07:20;6.95;;;2.10;;
49722;SDS011;43484;43.608;1.458;2022-07-23T01:09:47;7.28;;;1.73;;
49722;SDS011;43484;43.608;1.458;2022-07-23T01:12:15;13.80;;;3.10;;
49722;SDS011;43484;43.608;1.458;2022-07-23T01:14:41;6.63;;;2.38;;
49722;SDS011;43484;43.608;1.458;2022-07-23T01:17:08;7.63;;;2.72;;
49722;SDS011;43484;43.608;1.458;2022-07-23T01:19:35;10.80;;;3.35;;
49722;SDS011;43484;43.608;1.458;2022-07-23T01:22:02;14.82;;;2.40;;
49722;SDS011;43484;43.608;1.458;2022-07-23T01:24:30;11.45;;;2.25;;
49722;SDS011;43484;43.608;1.458;2022-07-23T01:26:57;10.38;;;2.08;;
49722;SDS011;43484;43.608;1.458;2022-07-23T01:29:24;10.07;;;2.08;;
49722;SDS011;43484;43.608;1.458;2022-07-23T01:31:50;9.90;;;2.00;;
49722;SDS011;43484;43.608;1.458;2022-07-23T01:34:17;5.50;;;1.85;;
49722;SDS011;43484;43.608;1.458;2022-07-23T01:36:44;7.18;;;2.33;;
49722;SDS011;43484;43.608;1.458;2022-07-23T01:39:12;7.82;;;2.00;;
49722;SDS011;43484;43.608;1.458;2022-07-23T01:41:38;7.85;;;2.00;;
49722;SDS011;43484;43.608;1.458;2022-07-23T01:44:05;4.97;;;1.80;;
49722;SDS011;43484;43.608;1.458;2022-07-23T01:46:32;8.77;;;2.45;;
49722;SDS011;43484;43.608;1.458;2022-07-23T01:48:58;7.85;;;2.20;;
49722;SDS011;43484;43.608;1.458;2022-07-23T01:51:26;5.72;;;1.95;;
49722;SDS011;43484;43.608;1.458;2022-07-23T01:53:54;6.95;;;1.80;;
49722;SDS011;43484;43.608;1.458;2022-07-23T01:56:20;6.60;;;2.05;;
49722;SDS011;43484;43.608;1.458;2022-07-23T01:58:48;7.47;;;2.08;;
49722;SDS011;43484;43.608;1.458;2022-07-23T02:01:15;4.97;;;1.77;;
49722;SDS011;43484;43.608;1.458;2022-07-23T02:03:42;6.55;;;2.00;;
49722;SDS011;43484;43.608;1.458;2022-07-23T02:06:08;9.48;;;2.03;;
49722;SDS011;43484;43.608;1.458;2022-07-23T02:08:35;9.30;;;1.95;;
49722;SDS011;43484;43.608;1.458;2022-07-23T02:11:02;7.72;;;2.28;;
49722;SDS011;43484;43.608;1.458;2022-07-23T02:13:29;9.75;;;2.90;;
49722;SDS011;43484;43.608;1.458;2022-07-23T02:15:59;10.63;;;2.00;;
49722;SDS011;43484;43.608;1.458;2022-07-23T02:18:26;10.38;;;2.33;;
49722;SDS011;43484;43.608;1.458;2022-07-23T02:20:55;7.68;;;2.42;;
49722;SDS011;43484;43.608;1.458;2022-07-23T02:23:21;13.57;;;2.50;;
49722;SDS011;43484;43.608;1.458;2022-07-23T02:25:48;9.15;;;2.70;;
49722;SDS011;43484;43.608;1.458;2022-07-23T02:28:14;5.43;;;1.70;;
49722;SDS011;43484;43.608;1.458;2022-07-23T02:30:41;5.55;;;1.80;;
49722;SDS011;43484;43.608;1.458;2022-07-23T02:33:08;6.18;;;2.03;;
49722;SDS011;43484;43.608;1.458;2022-07-23T02:35:34;11.43;;;2.55;;
49722;SDS011;43484;43.608;1.458;2022-07-23T02:38:01;6.55;;;2.22;;
49722;SDS011;43484;43.608;1.458;2022-07-23T02:40:28;6.72;;;1.88;;
49722;SDS011;43484;43.608;1.458;2022-07-23T02:42:55;7.90;;;2.35;;
49722;SDS011;43484;43.608;1.458;2022-07-23T02:45:22;14.10;;;2.83;;
49722;SDS011;43484;43.608;1.458;2022-07-23T02:47:48;10.25;;;2.40;;
49722;SDS011;43484;43.608;1.458;2022-07-23T02:50:15;15.20;;;2.15;;
49722;SDS011;43484;43.608;1.458;2022-07-23T02:52:42;10.25;;;2.75;;
49722;SDS011;43484;43.608;1.458;2022-07-23T02:55:08;7.82;;;2.42;;
49722;SDS011;43484;43.608;1.458;2022-07-23T02:57:35;9.93;;;2.20;;
49722;SDS011;43484;43.608;1.458;2022-07-23T03:00:02;8.05;;;2.00;;
49722;SDS011;43484;43.608;1.458;2022-07-23T03:02:31;10.30;;;2.40;;
49722;SDS011;43484;43.608;1.458;2022-07-23T03:05:01;9.68;;;2.58;;
49722;SDS011;43484;43.608;1.458;2022-07-23T03:07:30;10.57;;;2.13;;
49722;SDS011;43484;43.608;1.458;2022-07-23T03:09:58;11.00;;;2.28;;
49722;SDS011;43484;43.608;1.458;2022-07-23T03:12:25;13.45;;;2.30;;
49722;SDS011;43484;43.608;1.458;2022-07-23T03:14:52;4.90;;;2.10;;
49722;SDS011;43484;43.608;1.458;2022-07-23T03:17:18;6.45;;;2.28;;
49722;SDS011;43484;43.608;1.458;2022-07-23T03:19:45;13.38;;;2.67;;
49722;SDS011;43484;43.608;1.458;2022-07-23T03:22:11;6.07;;;2.70;;
49722;SDS011;43484;43.608;1.458;2022-07-23T03:24:38;8.98;;;2.38;;
49722;SDS011;43484;43.608;1.458;2022-07-23T03:27:20;10.90;;;2.95;;
49722;SDS011;43484;43.608;1.458;2022-07-23T03:29:48;8.75;;;2.00;;
49722;SDS011;43484;43.608;1.458;2022-07-23T03:32:16;8.75;;;2.67;;
49722;SDS011;43484;43.608;1.458;2022-07-23T03:34:43;10.70;;;3.33;;
49722;SDS011;43484;43.608;1.458;2022-07-23T03:37:10;13.88;;;2.28;;
49722;SDS011;43484;43.608;1.458;2022-07-23T03:39:37;9.50;;;2.80;;
49722;SDS011;43484;43.608;1.458;2022-07-23T03:42:03;9.98;;;2.60;;
49722;SDS011;43484;43.608;1.458;2022-07-23T03:44:30;12.63;;;3.38;;
49722;SDS011;43484;43.608;1.458;2022-07-23T03:46:57;15.20;;;2.88;;
49722;SDS011;43484;43.608;1.458;2022-07-23T03:49:24;9.52;;;2.88;;
49722;SDS011;43484;43.608;1.458;2022-07-23T03:51:51;16.80;;;3.45;;
49722;SDS011;43484;43.608;1.458;2022-07-23T03:54:17;7.45;;;2.97;;
49722;SDS011;43484;43.608;1.458;2022-07-23T03:56:44;9.02;;;3.00;;
49722;SDS011;43484;43.608;1.458;2022-07-23T03:59:10;14.43;;;2.80;;
49722;SDS011;43484;43.608;1.458;2022-07-23T04:01:37;12.50;;;2.78;;
49722;SDS011;43484;43.608;1.458;2022-07-23T04:04:04;11.65;;;3.03;;
49722;SDS011;43484;43.608;1.458;2022-07-23T04:06:31;13.20;;;3.40;;
49722;SDS011;43484;43.608;1.458;2022-07-23T04:08:58;6.30;;;2.50;;
49722;SDS011;43484;43.608;1.458;2022-07-23T04:11:26;13.60;;;3.67;;
49722;SDS011;43484;43.608;1.458;2022-07-23T04:13:52;12.10;;;3.15;;
49722;SDS011;43484;43.608;1.458;2022-07-23T04:16:19;9.32;;;2.97;;
49722;SDS011;43484;43.608;1.458;2022-07-23T04:18:46;9.43;;;3.13;;
49722;SDS011;43484;43.608;1.458;2022-07-23T04:21:14;9.80;;;2.60;;
49722;SDS011;43484;43.608;1.458;2022-07-23T04:23:41;7.43;;;3.05;;
49722;SDS011;43484;43.608;1.458;2022-07-23T04:26:09;7.88;;;2.97;;
49722;SDS011;43484;43.608;1.458;2022-07-23T04:28:42;11.98;;;3.13;;
49722;SDS011;43484;43.608;1.458;2022-07-23T04:31:09;10.77;;;2.70;;
49722;SDS011;43484;43.608;1.458;2022-07-23T04:33:37;11.65;;;3.20;;
49722;SDS011;43484;43.608;1.458;2022-07-23T04:36:03;9.02;;;3.25;;
49722;SDS011;43484;43.608;1.458;2022-07-23T04:38:30;10.07;;;3.15;;
49722;SDS011;43484;43.608;1.458;2022-07-23T04:41:01;8.40;;;3.00;;
49722;SDS011;43484;43.608;1.458;2022-07-23T04:43:28;9.05;;;2.90;;
49722;SDS011;43484;43.608;1.458;2022-07-23T04:45:55;11.23;;;3.05;;
49722;SDS011;43484;43.608;1.458;2022-07-23T04:48:22;11.55;;;2.95;;
49722;SDS011;43484;43.608;1.458;2022-07-23T04:50:48;13.07;;;3.17;;
49722;SDS011;43484;43.608;1.458;2022-07-23T04:53:15;12.18;;;3.55;;
49722;SDS011;43484;43.608;1.458;2022-07-23T04:55:42;9.88;;;3.85;;
49722;SDS011;43484;43.608;1.458;2022-07-23T04:58:08;10.68;;;2.75;;
49722;SDS011;43484;43.608;1.458;2022-07-23T05:00:35;12.35;;;3.03;;
49722;SDS011;43484;43.608;1.458;2022-07-23T05:03:02;11.43;;;3.40;;
49722;SDS011;43484;43.608;1.458;2022-07-23T05:05:28;11.45;;;3.30;;
49722;SDS011;43484;43.608;1.458;2022-07-23T05:07:55;11.35;;;3.17;;
49722;SDS011;43484;43.608;1.458;2022-07-23T05:10:22;10.98;;;3.08;;
49722;SDS011;43484;43.608;1.458;2022-07-23T05:12:52;17.67;;;3.47;;
49722;SDS011;43484;43.608;1.458;2022-07-23T05:15:18;7.40;;;2.30;;
49722;SDS011;43484;43.608;1.458;2022-07-23T05:17:45;12.23;;;2.83;;
49722;SDS011;43484;43.608;1.458;2022-07-23T05:20:12;6.57;;;2.35;;
49722;SDS011;43484;43.608;1.458;2022-07-23T05:22:40;11.73;;;2.28;;
49722;SDS011;43484;43.608;1.458;2022-07-23T05:25:06;12.68;;;2.13;;
49722;SDS011;43484;43.608;1.458;2022-07-23T05:27:34;10.68;;;2.47;;
49722;SDS011;43484;43.608;1.458;2022-07-23T05:30:01;13.30;;;2.38;;
49722;SDS011;43484;43.608;1.458;2022-07-23T05:32:30;5.63;;;2.40;;
49722;SDS011;43484;43.608;1.458;2022-07-23T05:34:58;15.10;;;2.17;;
49722;SDS011;43484;43.608;1.458;2022-07-23T05:37:24;10.55;;;3.22;;
49722;SDS011;43484;43.608;1.458;2022-07-23T05:39:51;7.65;;;2.72;;
49722;SDS011;43484;43.608;1.458;2022-07-23T05:42:18;7.30;;;2.55;;
49722;SDS011;43484;43.608;1.458;2022-07-23T05:44:44;9.93;;;2.40;;
49722;SDS011;43484;43.608;1.458;2022-07-23T05:47:11;8.50;;;3.00;;
49722;SDS011;43484;43.608;1.458;2022-07-23T05:49:37;11.65;;;2.83;;
49722;SDS011;43484;43.608;1.458;2022-07-23T05:52:07;8.13;;;2.80;;
49722;SDS011;43484;43.608;1.458;2022-07-23T05:54:34;15.40;;;3.60;;
49722;SDS011;43484;43.608;1.458;2022-07-23T05:57:02;6.03;;;2.22;;
49722;SDS011;43484;43.608;1.458;2022-07-23T05:59:29;6.25;;;2.70;;
49722;SDS011;43484;43.608;1.458;2022-07-23T06:01:56;6.00;;;2.40;;
49722;SDS011;43484;43.608;1.458;2022-07-23T06:04:23;10.55;;;2.80;;
49722;SDS011;43484;43.608;1.458;2022-07-23T06:06:50;10.65;;;2.78;;
49722;SDS011;43484;43.608;1.458;2022-07-23T06:09:16;8.30;;;2.13;;
49722;SDS011;43484;43.608;1.458;2022-07-23T06:11:43;8.93;;;2.55;;
49722;SDS011;43484;43.608;1.458;2022-07-23T06:14:10;11.90;;;2.90;;
49722;SDS011;43484;43.608;1.458;2022-07-23T06:16:37;13.43;;;3.80;;
49722;SDS011;43484;43.608;1.458;2022-07-23T06:19:04;11.25;;;2.60;;
49722;SDS011;43484;43.608;1.458;2022-07-23T06:21:30;5.85;;;2.20;;
49722;SDS011;43484;43.608;1.458;2022-07-23T06:24:13;8.88;;;2.28;;
49722;SDS011;43484;43.608;1.458;2022-07-23T06:26:40;11.20;;;2.70;;
49722;SDS011;43484;43.608;1.458;2022-07-23T06:29:08;9.20;;;2.72;;
49722;SDS011;43484;43.608;1.458;2022-07-23T06:31:35;13.35;;;3.28;;
49722;SDS011;43484;43.608;1.458;2022-07-23T06:34:02;9.32;;;2.72;;
49722;SDS011;43484;43.608;1.458;2022-07-23T06:36:29;7.72;;;2.58;;
49722;SDS011;43484;43.608;1.458;2022-07-23T06:38:56;10.75;;;2.58;;
49722;SDS011;43484;43.608;1.458;2022-07-23T06:41:23;10.65;;;2.60;;
49722;SDS011;43484;43.608;1.458;2022-07-23T06:43:50;8.38;;;2.17;;
49722;SDS011;43484;43.608;1.458;2022-07-23T06:46:16;6.80;;;2.30;;
49722;SDS011;43484;43.608;1.458;2022-07-23T06:48:43;6.03;;;2.17;;
49722;SDS011;43484;43.608;1.458;2022-07-23T06:51:11;9.02;;;2.20;;
49722;SDS011;43484;43.608;1.458;2022-07-23T06:53:37;7.18;;;2.25;;
49722;SDS011;43484;43.608;1.458;2022-07-23T06:56:04;10.68;;;2.60;;
49722;SDS011;43484;43.608;1.458;2022-07-23T06:58:31;7.40;;;2.35;;
49722;SDS011;43484;43.608;1.458;2022-07-23T07:00:57;7.40;;;2.10;;
49722;SDS011;43484;43.608;1.458;2022-07-23T07:03:24;7.80;;;2.00;;
49722;SDS011;43484;43.608;1.458;2022-07-23T07:05:50;6.50;;;2.58;;
49722;SDS011;43484;43.608;1.458;2022-07-23T07:08:18;6.30;;;2.20;;
49722;SDS011;43484;43.608;1.458;2022-07-23T07:10:44;9.88;;;2.42;;
49722;SDS011;43484;43.608;1.458;2022-07-23T07:13:12;3.92;;;2.20;;
49722;SDS011;43484;43.608;1.458;2022-07-23T07:15:39;6.57;;;2.35;;
49722;SDS011;43484;43.608;1.458;2022-07-23T07:18:05;4.07;;;1.67;;
49722;SDS011;43484;43.608;1.458;2022-07-23T07:20:32;4.75;;;1.92;;
49722;SDS011;43484;43.608;1.458;2022-07-23T07:22:59;8.63;;;2.88;;
49722;SDS011;43484;43.608;1.458;2022-07-23T07:25:25;5.25;;;2.03;;
49722;SDS011;43484;43.608;1.458;2022-07-23T07:27:52;5.45;;;1.73;;
49722;SDS011;43484;43.608;1.458;2022-07-23T07:30:19;7.00;;;2.28;;
49722;SDS011;43484;43.608;1.458;2022-07-23T07:32:48;5.78;;;2.03;;
49722;SDS011;43484;43.608;1.458;2022-07-23T07:35:23;7.78;;;2.05;;
49722;SDS011;43484;43.608;1.458;2022-07-23T07:37:50;4.55;;;1.67;;
49722;SDS011;43484;43.608;1.458;2022-07-23T07:40:17;7.03;;;1.80;;
49722;SDS011;43484;43.608;1.458;2022-07-23T07:42:45;4.40;;;1.27;;
49722;SDS011;43484;43.608;1.458;2022-07-23T07:45:13;7.88;;;2.25;;
49722;SDS011;43484;43.608;1.458;2022-07-23T07:47:42;6.30;;;1.55;;
49722;SDS011;43484;43.608;1.458;2022-07-23T07:50:09;6.05;;;2.05;;
49722;SDS011;43484;43.608;1.458;2022-07-23T07:52:37;6.68;;;1.60;;
49722;SDS011;43484;43.608;1.458;2022-07-23T07:55:05;3.95;;;1.60;;
49722;SDS011;43484;43.608;1.458;2022-07-23T07:57:34;9.05;;;2.20;;
49722;SDS011;43484;43.608;1.458;2022-07-23T08:00:02;9.20;;;1.65;;
49722;SDS011;43484;43.608;1.458;2022-07-23T08:02:46;7.03;;;1.77;;
49722;SDS011;43484;43.608;1.458;2022-07-23T08:05:22;7.43;;;2.28;;
49722;SDS011;43484;43.608;1.458;2022-07-23T08:07:54;8.93;;;1.95;;
49722;SDS011;43484;43.608;1.458;2022-07-23T08:10:21;10.82;;;2.25;;
49722;SDS011;43484;43.608;1.458;2022-07-23T08:12:50;10.25;;;1.90;;
49722;SDS011;43484;43.608;1.458;2022-07-23T08:15:20;4.72;;;1.73;;
49722;SDS011;43484;43.608;1.458;2022-07-23T08:17:47;5.13;;;1.83;;
49722;SDS011;43484;43.608;1.458;2022-07-23T08:20:16;9.90;;;1.58;;
49722;SDS011;43484;43.608;1.458;2022-07-23T08:22:48;10.35;;;2.40;;
49722;SDS011;43484;43.608;1.458;2022-07-23T08:25:28;4.85;;;1.88;;
49722;SDS011;43484;43.608;1.458;2022-07-23T08:27:56;6.60;;;2.55;;
49722;SDS011;43484;43.608;1.458;2022-07-23T08:30:23;9.43;;;1.80;;
49722;SDS011;43484;43.608;1.458;2022-07-23T08:35:32;9.93;;;2.05;;
49722;SDS011;43484;43.608;1.458;2022-07-23T08:38:04;9.95;;;1.88;;
49722;SDS011;43484;43.608;1.458;2022-07-23T08:40:36;7.63;;;1.67;;
49722;SDS011;43484;43.608;1.458;2022-07-23T08:45:38;8.68;;;2.03;;
49722;SDS011;43484;43.608;1.458;2022-07-23T08:48:13;6.47;;;2.22;;
49722;SDS011;43484;43.608;1.458;2022-07-23T08:50:43;9.95;;;2.70;;
49722;SDS011;43484;43.608;1.458;2022-07-23T08:53:12;11.70;;;2.33;;
49722;SDS011;43484;43.608;1.458;2022-07-23T08:55:39;6.57;;;2.17;;
49722;SDS011;43484;43.608;1.458;2022-07-23T08:58:06;16.13;;;2.30;;
49722;SDS011;43484;43.608;1.458;2022-07-23T09:00:34;8.63;;;1.80;;
49722;SDS011;43484;43.608;1.458;2022-07-23T09:03:00;7.85;;;1.80;;
49722;SDS011;43484;43.608;1.458;2022-07-23T09:05:27;12.75;;;1.50;;
49722;SDS011;43484;43.608;1.458;2022-07-23T09:13:27;5.30;;;1.70;;
49722;SDS011;43484;43.608;1.458;2022-07-23T09:16:03;4.30;;;1.58;;
49722;SDS011;43484;43.608;1.458;2022-07-23T09:18:36;6.00;;;1.35;;
49722;SDS011;43484;43.608;1.458;2022-07-23T09:24:00;6.88;;;1.30;;
49722;SDS011;43484;43.608;1.458;2022-07-23T09:36:49;4.75;;;1.38;;
49722;SDS011;43484;43.608;1.458;2022-07-23T09:39:25;2.60;;;0.90;;
49722;SDS011;43484;43.608;1.458;2022-07-23T09:41:56;6.40;;;1.20;;
49722;SDS011;43484;43.608;1.458;2022-07-23T09:44:23;6.88;;;1.63;;
49722;SDS011;43484;43.608;1.458;2022-07-23T09:46:57;6.63;;;1.20;;
49722;SDS011;43484;43.608;1.458;2022-07-23T09:49:24;5.00;;;1.38;;
49722;SDS011;43484;43.608;1.458;2022-07-23T09:54:23;3.70;;;1.00;;
49722;SDS011;43484;43.608;1.458;2022-07-23T09:57:05;7.68;;;1.15;;
49722;SDS011;43484;43.608;1.458;2022-07-23T09:59:39;6.18;;;1.23;;
49722;SDS011;43484;43.608;1.458;2022-07-23T10:02:06;5.65;;;1.17;;
49722;SDS011;43484;43.608;1.458;2022-07-23T10:04:37;5.00;;;1.23;;
49722;SDS011;43484;43.608;1.458;2022-07-23T10:07:04;5.28;;;1.10;;
49722;SDS011;43484;43.608;1.458;2022-07-23T10:09:37;5.38;;;1.52;;
49722;SDS011;43484;43.608;1.458;2022-07-23T10:12:09;7.97;;;1.13;;
49722;SDS011;43484;43.608;1.458;2022-07-23T10:14:46;6.53;;;1.20;;
49722;SDS011;43484;43.608;1.458;2022-07-23T10:17:14;3.55;;;0.98;;
49722;SDS011;43484;43.608;1.458;2022-07-23T10:19:41;4.63;;;1.27;;
49722;SDS011;43484;43.608;1.458;2022-07-23T10:22:18;2.30;;;0.70;;
49722;SDS011;43484;43.608;1.458;2022-07-23T10:24:52;4.00;;;0.93;;
49722;SDS011;43484;43.608;1.458;2022-07-23T10:29:47;2.60;;;0.85;;
49722;SDS011;43484;43.608;1.458;2022-07-23T10:32:32;3.75;;;0.75;;
49722;SDS011;43484;43.608;1.458;2022-07-23T10:35:29;4.38;;;1.10;;
49722;SDS011;43484;43.608;1.458;2022-07-23T10:38:07;2.33;;;0.70;;
49722;SDS011;43484;43.608;1.458;2022-07-23T10:40:52;3.63;;;1.15;;
49722;SDS011;43484;43.608;1.458;2022-07-23T10:43:24;1.80;;;0.55;;
49722;SDS011;43484;43.608;1.458;2022-07-23T10:45:53;1.52;;;0.52;;
49722;SDS011;43484;43.608;1.458;2022-07-23T11:02:29;4.18;;;0.88;;
49722;SDS011;43484;43.608;1.458;2022-07-23T11:05:01;2.78;;;0.80;;
49722;SDS011;43484;43.608;1.458;2022-07-23T11:09:57;1.38;;;0.60;;
49722;SDS011;43484;43.608;1.458;2022-07-23T11:20:18;1.77;;;0.60;;
49722;SDS011;43484;43.608;1.458;2022-07-23T11:22:47;4.30;;;0.80;;
49722;SDS011;43484;43.608;1.458;2022-07-23T11:27:50;1.98;;;0.60;;
49722;SDS011;43484;43.608;1.458;2022-07-23T11:33:15;3.35;;;0.50;;
49722;SDS011;43484;43.608;1.458;2022-07-23T11:35:40;2.50;;;0.50;;
49722;SDS011;43484;43.608;1.458;2022-07-23T11:38:17;2.70;;;0.77;;
49722;SDS011;43484;43.608;1.458;2022-07-23T11:40:44;0.65;;;0.40;;
49722;SDS011;43484;43.608;1.458;2022-07-23T11:43:29;2.90;;;0.90;;
49722;SDS011;43484;43.608;1.458;2022-07-23T11:45:57;2.10;;;0.63;;
49722;SDS011;43484;43.608;1.458;2022-07-23T11:48:26;3.95;;;0.80;;
49722;SDS011;43484;43.608;1.458;2022-07-23T11:50:56;1.98;;;0.60;;
49722;SDS011;43484;43.608;1.458;2022-07-23T11:53:28;1.67;;;0.77;;
49722;SDS011;43484;43.608;1.458;2022-07-23T11:56:06;2.72;;;0.68;;
49722;SDS011;43484;43.608;1.458;2022-07-23T11:58:35;3.80;;;0.90;;
49722;SDS011;43484;43.608;1.458;2022-07-23T12:01:02;1.52;;;0.57;;
49722;SDS011;43484;43.608;1.458;2022-07-23T12:03:30;3.08;;;1.00;;
49722;SDS011;43484;43.608;1.458;2022-07-23T12:05:57;1.73;;;0.60;;
49722;SDS011;43484;43.608;1.458;2022-07-23T12:08:24;4.15;;;0.82;;
49722;SDS011;43484;43.608;1.458;2022-07-23T12:10:51;5.53;;;1.10;;
49722;SDS011;43484;43.608;1.458;2022-07-23T12:13:19;3.20;;;0.90;;
49722;SDS011;43484;43.608;1.458;2022-07-23T12:15:48;4.35;;;0.98;;
49722;SDS011;43484;43.608;1.458;2022-07-23T12:18:20;3.33;;;1.00;;
49722;SDS011;43484;43.608;1.458;2022-07-23T12:20:51;3.38;;;0.82;;
49722;SDS011;43484;43.608;1.458;2022-07-23T12:23:20;2.35;;;0.90;;
49722;SDS011;43484;43.608;1.458;2022-07-23T12:25:51;2.63;;;0.98;;
49722;SDS011;43484;43.608;1.458;2022-07-23T12:28:32;1.98;;;0.95;;
49722;SDS011;43484;43.608;1.458;2022-07-23T12:30:59;7.22;;;1.30;;
49722;SDS011;43484;43.608;1.458;2022-07-23T12:35:55;4.55;;;0.90;;
49722;SDS011;43484;43.608;1.458;2022-07-23T12:38:24;4.85;;;1.08;;
49722;SDS011;43484;43.608;1.458;2022-07-23T12:40:58;5.40;;;0.98;;
49722;SDS011;43484;43.608;1.458;2022-07-23T12:43:27;5.13;;;1.23;;
49722;SDS011;43484;43.608;1.458;2022-07-23T12:50:51;4.68;;;1.42;;
49722;SDS011;43484;43.608;1.458;2022-07-23T12:55:57;5.78;;;1.17;;
49722;SDS011;43484;43.608;1.458;2022-07-23T13:03:57;4.60;;;1.40;;
49722;SDS011;43484;43.608;1.458;2022-07-23T13:06:46;3.13;;;1.20;;
49722;SDS011;43484;43.608;1.458;2022-07-23T13:09:26;7.28;;;1.50;;
49722;SDS011;43484;43.608;1.458;2022-07-23T13:11:59;5.47;;;1.20;;
49722;SDS011;43484;43.608;1.458;2022-07-23T13:14:26;6.03;;;1.60;;
49722;SDS011;43484;43.608;1.458;2022-07-23T13:16:54;4.60;;;1.20;;
49722;SDS011;43484;43.608;1.458;2022-07-23T13:19:22;7.55;;;2.03;;
49722;SDS011;43484;43.608;1.458;2022-07-23T13:21:50;3.95;;;1.48;;
49722;SDS011;43484;43.608;1.458;2022-07-23T13:24:20;5.70;;;1.65;;
49722;SDS011;43484;43.608;1.458;2022-07-23T13:26:47;5.00;;;1.55;;
49722;SDS011;43484;43.608;1.458;2022-07-23T13:29:17;2.63;;;1.35;;
49722;SDS011;43484;43.608;1.458;2022-07-23T13:31:45;6.15;;;1.90;;
49722;SDS011;43484;43.608;1.458;2022-07-23T13:34:13;3.08;;;1.33;;
49722;SDS011;43484;43.608;1.458;2022-07-23T13:36:40;7.43;;;1.48;;
49722;SDS011;43484;43.608;1.458;2022-07-23T13:39:09;6.28;;;1.83;;
49722;SDS011;43484;43.608;1.458;2022-07-23T13:41:38;3.72;;;1.63;;
49722;SDS011;43484;43.608;1.458;2022-07-23T13:44:14;5.50;;;1.45;;
49722;SDS011;43484;43.608;1.458;2022-07-23T13:46:41;4.07;;;1.60;;
49722;SDS011;43484;43.608;1.458;2022-07-23T13:49:08;6.07;;;1.75;;
49722;SDS011;43484;43.608;1.458;2022-07-23T13:51:36;6.47;;;1.67;;
49722;SDS011;43484;43.608;1.458;2022-07-23T13:54:03;6.13;;;2.25;;
49722;SDS011;43484;43.608;1.458;2022-07-23T13:56:34;9.55;;;2.53;;
49722;SDS011;43484;43.608;1.458;2022-07-23T13:59:03;3.95;;;2.10;;
49722;SDS011;43484;43.608;1.458;2022-07-23T14:01:32;8.40;;;2.58;;
49722;SDS011;43484;43.608;1.458;2022-07-23T14:04:15;8.23;;;1.95;;
49722;SDS011;43484;43.608;1.458;2022-07-23T14:06:43;6.10;;;2.13;;
49722;SDS011;43484;43.608;1.458;2022-07-23T14:11:44;2.70;;;1.20;;
49722;SDS011;43484;43.608;1.458;2022-07-23T14:14:11;4.40;;;1.85;;
49722;SDS011;43484;43.608;1.458;2022-07-23T14:16:38;6.50;;;1.95;;
49722;SDS011;43484;43.608;1.458;2022-07-23T14:19:05;4.97;;;1.73;;
49722;SDS011;43484;43.608;1.458;2022-07-23T14:21:32;5.47;;;1.70;;
49722;SDS011;43484;43.608;1.458;2022-07-23T14:23:59;5.15;;;1.88;;
49722;SDS011;43484;43.608;1.458;2022-07-23T14:26:25;6.15;;;2.45;;
49722;SDS011;43484;43.608;1.458;2022-07-23T14:28:53;2.25;;;1.40;;
49722;SDS011;43484;43.608;1.458;2022-07-23T14:31:19;5.30;;;1.52;;
49722;SDS011;43484;43.608;1.458;2022-07-23T14:33:47;5.32;;;1.80;;
49722;SDS011;43484;43.608;1.458;2022-07-23T14:36:14;7.72;;;1.70;;
49722;SDS011;43484;43.608;1.458;2022-07-23T14:38:41;9.73;;;1.38;;
49722;SDS011;43484;43.608;1.458;2022-07-23T14:41:08;4.18;;;1.40;;
49722;SDS011;43484;43.608;1.458;2022-07-23T14:43:36;6.85;;;1.75;;
49722;SDS011;43484;43.608;1.458;2022-07-23T14:46:06;9.40;;;2.15;;
49722;SDS011;43484;43.608;1.458;2022-07-23T14:48:34;10.63;;;1.92;;
49722;SDS011;43484;43.608;1.458;2022-07-23T14:51:05;6.57;;;1.90;;
49722;SDS011;43484;43.608;1.458;2022-07-23T14:53:31;5.60;;;1.85;;
49722;SDS011;43484;43.608;1.458;2022-07-23T14:55:58;5.95;;;2.45;;
49722;SDS011;43484;43.608;1.458;2022-07-23T14:58:24;5.22;;;1.80;;
49722;SDS011;43484;43.608;1.458;2022-07-23T15:00:51;4.25;;;2.05;;
49722;SDS011;43484;43.608;1.458;2022-07-23T15:03:18;7.32;;;1.90;;
49722;SDS011;43484;43.608;1.458;2022-07-23T15:05:45;3.92;;;1.80;;
49722;SDS011;43484;43.608;1.458;2022-07-23T15:08:12;5.72;;;1.98;;
49722;SDS011;43484;43.608;1.458;2022-07-23T15:10:38;5.95;;;1.85;;
49722;SDS011;43484;43.608;1.458;2022-07-23T15:13:09;6.85;;;2.42;;
49722;SDS011;43484;43.608;1.458;2022-07-23T15:15:37;7.18;;;1.98;;
49722;SDS011;43484;43.608;1.458;2022-07-23T15:18:06;4.38;;;2.13;;
49722;SDS011;43484;43.608;1.458;2022-07-23T15:20:32;6.47;;;1.92;;
49722;SDS011;43484;43.608;1.458;2022-07-23T15:23:06;5.43;;;1.77;;
49722;SDS011;43484;43.608;1.458;2022-07-23T15:25:35;6.78;;;1.73;;
49722;SDS011;43484;43.608;1.458;2022-07-23T15:28:03;5.25;;;2.22;;
49722;SDS011;43484;43.608;1.458;2022-07-23T15:30:33;5.93;;;1.70;;
49722;SDS011;43484;43.608;1.458;2022-07-23T15:32:59;7.00;;;1.60;;
49722;SDS011;43484;43.608;1.458;2022-07-23T15:35:26;4.88;;;1.95;;
49722;SDS011;43484;43.608;1.458;2022-07-23T15:37:52;5.28;;;2.00;;
49722;SDS011;43484;43.608;1.458;2022-07-23T15:40:19;7.88;;;1.58;;
49722;SDS011;43484;43.608;1.458;2022-07-23T15:42:46;4.15;;;1.77;;
49722;SDS011;43484;43.608;1.458;2022-07-23T15:45:13;6.45;;;1.95;;
49722;SDS011;43484;43.608;1.458;2022-07-23T15:47:40;6.53;;;1.90;;
49722;SDS011;43484;43.608;1.458;2022-07-23T15:50:09;6.07;;;2.40;;
49722;SDS011;43484;43.608;1.458;2022-07-23T15:52:37;3.45;;;1.75;;
49722;SDS011;43484;43.608;1.458;2022-07-23T15:55:04;6.43;;;1.98;;
49722;SDS011;43484;43.608;1.458;2022-07-23T15:57:42;5.55;;;1.77;;
49722;SDS011;43484;43.608;1.458;2022-07-23T16:00:10;6.18;;;1.95;;
49722;SDS011;43484;43.608;1.458;2022-07-23T16:02:39;6.20;;;1.80;;
49722;SDS011;43484;43.608;1.458;2022-07-23T16:05:06;4.03;;;1.73;;
49722;SDS011;43484;43.608;1.458;2022-07-23T16:07:54;3.17;;;1.75;;
49722;SDS011;43484;43.608;1.458;2022-07-23T16:10:21;4.82;;;1.63;;